sensor_id;sensor_type;location;lat;lon;timestamp;temperature;humidity
6764;DHT22;47432;48.760;9.178;2023-09-19T00:00:34;18.00;99.90
6764;DHT22;47432;48.760;9.178;2023-09-19T00:03:01;17.90;99.90
6764;DHT22;47432;48.760;9.178;2023-09-19T00:05:28;18.00;99.90
6764;DHT22;47432;48.760;9.178;2023-09-19T00:07:56;17.90;99.90
6764;DHT22;47432;48.760;9.178;2023-09-19T00:10:33;17.90;99.90
6764;DHT22;47432;48.760;9.178;2023-09-19T00:13:03;17.90;99.90
6764;DHT22;47432;48.760;9.178;2023-09-19T00:15:40;17.80;99.90
6764;DHT22;47432;48.760;9.178;2023-09-19T00:18:08;17.80;99.90
6764;DHT22;47432;48.760;9.178;2023-09-19T00:20:37;17.80;99.90
6764;DHT22;47432;48.760;9.178;2023-09-19T00:23:07;17.80;99.90
6764;DHT22;47432;48.760;9.178;2023-09-19T00:25:36;17.80;99.90
6764;DHT22;47432;48.760;9.178;2023-09-19T00:28:03;17.80;99.90
6764;DHT22;47432;48.760;9.178;2023-09-19T00:30:30;17.80;99.90
6764;DHT22;47432;48.760;9.178;2023-09-19T00:32:56;17.80;99.90
6764;DHT22;47432;48.760;9.178;2023-09-19T00:35:22;17.90;99.90
6764;DHT22;47432;48.760;9.178;2023-09-19T00:37:53;17.80;99.90
6764;DHT22;47432;48.760;9.178;2023-09-19T00:40:21;17.80;99.90
6764;DHT22;47432;48.760;9.178;2023-09-19T00:42:49;17.80;99.90
6764;DHT22;47432;48.760;9.178;2023-09-19T00:45:17;17.80;99.90
6764;DHT22;47432;48.760;9.178;2023-09-19T00:47:45;17.80;99.90
6764;DHT22;47432;48.760;9.178;2023-09-19T00:50:18;17.80;99.90
6764;DHT22;47432;48.760;9.178;2023-09-19T00:52:49;17.70;99.90
6764;DHT22;47432;48.760;9.178;2023-09-19T00:55:18;17.70;99.90
6764;DHT22;47432;48.760;9.178;2023-09-19T00:57:47;17.80;99.90
6764;DHT22;47432;48.760;9.178;2023-09-19T01:00:15;17.70;99.90
6764;DHT22;47432;48.760;9.178;2023-09-19T01:02:44;17.60;99.90
6764;DHT22;47432;48.760;9.178;2023-09-19T01:05:11;17.60;99.90
6764;DHT22;47432;48.760;9.178;2023-09-19T01:07:38;17.60;99.90
6764;DHT22;47432;48.760;9.178;2023-09-19T01:10:11;17.60;99.90
6764;DHT22;47432;48.760;9.178;2023-09-19T01:18:43;17.60;99.90
6764;DHT22;47432;48.760;9.178;2023-09-19T01:28:29;17.60;99.90
6764;DHT22;47432;48.760;9.178;2023-09-19T01:31:02;16.80;99.90
6764;DHT22;47432;48.760;9.178;2023-09-19T01:33:53;17.60;99.90
6764;DHT22;47432;48.760;9.178;2023-09-19T01:36:25;17.60;99.90
6764;DHT22;47432;48.760;9.178;2023-09-19T01:38:56;17.50;99.90
6764;DHT22;47432;48.760;9.178;2023-09-19T01:47:40;17.60;99.90
6764;DHT22;47432;48.760;9.178;2023-09-19T01:50:31;17.60;99.90
6764;DHT22;47432;48.760;9.178;2023-09-19T01:53:12;17.60;99.90
6764;DHT22;47432;48.760;9.178;2023-09-19T01:55:43;17.60;99.90
6764;DHT22;47432;48.760;9.178;2023-09-19T02:01:01;17.50;99.90
6764;DHT22;47432;48.760;9.178;2023-09-19T02:03:27;17.60;99.90
6764;DHT22;47432;48.760;9.178;2023-09-19T02:05:54;17.60;99.90
6764;DHT22;47432;48.760;9.178;2023-09-19T02:08:22;17.70;99.90
6764;DHT22;47432;48.760;9.178;2023-09-19T02:10:49;17.60;99.90
6764;DHT22;47432;48.760;9.178;2023-09-19T02:13:16;17.60;99.90
6764;DHT22;47432;48.760;9.178;2023-09-19T02:15:43;17.50;99.90
6764;DHT22;47432;48.760;9.178;2023-09-19T02:18:12;17.40;99.90
6764;DHT22;47432;48.760;9.178;2023-09-19T02:20:39;17.40;99.90
6764;DHT22;47432;48.760;9.178;2023-09-19T02:23:05;17.30;99.90
6764;DHT22;47432;48.760;9.178;2023-09-19T02:25:31;17.40;99.90
6764;DHT22;47432;48.760;9.178;2023-09-19T02:28:00;17.30;99.90
6764;DHT22;47432;48.760;9.178;2023-09-19T02:30:28;17.30;99.90
6764;DHT22;47432;48.760;9.178;2023-09-19T02:32:54;17.20;99.90
6764;DHT22;47432;48.760;9.178;2023-09-19T02:35:20;17.30;99.90
6764;DHT22;47432;48.760;9.178;2023-09-19T02:37:46;17.30;99.90
6764;DHT22;47432;48.760;9.178;2023-09-19T02:40:15;17.10;99.90
6764;DHT22;47432;48.760;9.178;2023-09-19T02:42:47;17.10;99.90
6764;DHT22;47432;48.760;9.178;2023-09-19T02:45:16;17.10;99.90
6764;DHT22;47432;48.760;9.178;2023-09-19T02:47:47;17.10;99.90
6764;DHT22;47432;48.760;9.178;2023-09-19T02:50:14;17.10;99.90
6764;DHT22;47432;48.760;9.178;2023-09-19T02:52:45;16.90;99.90
6764;DHT22;47432;48.760;9.178;2023-09-19T02:55:18;16.90;99.90
6764;DHT22;47432;48.760;9.178;2023-09-19T02:57:48;16.90;99.90
6764;DHT22;47432;48.760;9.178;2023-09-19T03:00:18;16.90;99.90
6764;DHT22;47432;48.760;9.178;2023-09-19T03:02:52;16.90;99.90
6764;DHT22;47432;48.760;9.178;2023-09-19T03:05:21;17.00;99.90
6764;DHT22;47432;48.760;9.178;2023-09-19T03:07:50;17.00;99.90
6764;DHT22;47432;48.760;9.178;2023-09-19T03:10:17;17.10;99.90
6764;DHT22;47432;48.760;9.178;2023-09-19T03:12:43;17.10;99.90
6764;DHT22;47432;48.760;9.178;2023-09-19T03:15:09;17.20;99.90
6764;DHT22;47432;48.760;9.178;2023-09-19T03:17:36;17.20;99.90
6764;DHT22;47432;48.760;9.178;2023-09-19T03:20:06;17.30;99.90
6764;DHT22;47432;48.760;9.178;2023-09-19T03:22:34;17.40;99.90
6764;DHT22;47432;48.760;9.178;2023-09-19T03:25:00;17.50;99.90
6764;DHT22;47432;48.760;9.178;2023-09-19T03:27:26;17.50;99.90
6764;DHT22;47432;48.760;9.178;2023-09-19T03:29:52;17.50;99.90
6764;DHT22;47432;48.760;9.178;2023-09-19T03:32:19;17.60;99.90
6764;DHT22;47432;48.760;9.178;2023-09-19T03:34:45;17.60;99.90
6764;DHT22;47432;48.760;9.178;2023-09-19T03:37:14;17.50;99.90
6764;DHT22;47432;48.760;9.178;2023-09-19T03:39:40;17.50;99.90
6764;DHT22;47432;48.760;9.178;2023-09-19T03:42:05;17.60;99.90
6764;DHT22;47432;48.760;9.178;2023-09-19T03:44:32;17.60;99.90
6764;DHT22;47432;48.760;9.178;2023-09-19T03:46:59;17.70;99.90
6764;DHT22;47432;48.760;9.178;2023-09-19T03:49:25;17.70;99.90
6764;DHT22;47432;48.760;9.178;2023-09-19T03:51:51;17.70;99.90
6764;DHT22;47432;48.760;9.178;2023-09-19T03:54:17;17.60;99.90
6764;DHT22;47432;48.760;9.178;2023-09-19T03:56:44;17.70;99.90
6764;DHT22;47432;48.760;9.178;2023-09-19T03:59:11;17.70;99.90
6764;DHT22;47432;48.760;9.178;2023-09-19T04:01:37;17.70;99.90
6764;DHT22;47432;48.760;9.178;2023-09-19T04:04:08;17.60;99.90
6764;DHT22;47432;48.760;9.178;2023-09-19T04:06:34;17.70;99.90
6764;DHT22;47432;48.760;9.178;2023-09-19T04:09:01;17.60;99.90
6764;DHT22;47432;48.760;9.178;2023-09-19T04:11:29;17.50;99.90
6764;DHT22;47432;48.760;9.178;2023-09-19T04:13:56;17.50;99.90
6764;DHT22;47432;48.760;9.178;2023-09-19T04:16:22;17.40;99.90
6764;DHT22;47432;48.760;9.178;2023-09-19T04:18:48;17.30;99.90
6764;DHT22;47432;48.760;9.178;2023-09-19T04:21:13;17.30;99.90
6764;DHT22;47432;48.760;9.178;2023-09-19T04:23:42;17.30;99.90
6764;DHT22;47432;48.760;9.178;2023-09-19T04:26:08;17.40;99.90
6764;DHT22;47432;48.760;9.178;2023-09-19T04:28:37;17.40;99.90
6764;DHT22;47432;48.760;9.178;2023-09-19T04:31:04;17.40;99.90
6764;DHT22;47432;48.760;9.178;2023-09-19T04:33:29;17.20;99.90
6764;DHT22;47432;48.760;9.178;2023-09-19T04:35:55;17.30;99.90
6764;DHT22;47432;48.760;9.178;2023-09-19T04:38:21;17.30;99.90
6764;DHT22;47432;48.760;9.178;2023-09-19T04:40:47;17.30;99.90
6764;DHT22;47432;48.760;9.178;2023-09-19T04:43:13;17.40;99.90
6764;DHT22;47432;48.760;9.178;2023-09-19T04:45:40;17.40;99.90
6764;DHT22;47432;48.760;9.178;2023-09-19T04:48:06;17.40;99.90
6764;DHT22;47432;48.760;9.178;2023-09-19T04:50:34;17.40;99.90
6764;DHT22;47432;48.760;9.178;2023-09-19T04:53:00;17.50;99.90
6764;DHT22;47432;48.760;9.178;2023-09-19T04:55:26;17.50;99.90
6764;DHT22;47432;48.760;9.178;2023-09-19T04:57:53;17.50;99.90
6764;DHT22;47432;48.760;9.178;2023-09-19T05:00:23;17.60;99.90
6764;DHT22;47432;48.760;9.178;2023-09-19T05:02:56;17.50;99.90
6764;DHT22;47432;48.760;9.178;2023-09-19T05:05:23;17.50;99.90
6764;DHT22;47432;48.760;9.178;2023-09-19T05:07:51;17.40;99.90
6764;DHT22;47432;48.760;9.178;2023-09-19T05:10:19;17.50;99.90
6764;DHT22;47432;48.760;9.178;2023-09-19T05:12:45;17.50;99.90
6764;DHT22;47432;48.760;9.178;2023-09-19T05:15:14;17.60;99.90
6764;DHT22;47432;48.760;9.178;2023-09-19T05:17:48;17.60;99.90
6764;DHT22;47432;48.760;9.178;2023-09-19T05:20:15;17.60;99.90
6764;DHT22;47432;48.760;9.178;2023-09-19T05:22:42;17.50;99.90
6764;DHT22;47432;48.760;9.178;2023-09-19T05:25:12;17.50;99.90
6764;DHT22;47432;48.760;9.178;2023-09-19T05:27:43;17.50;99.90
6764;DHT22;47432;48.760;9.178;2023-09-19T05:30:09;17.40;99.90
6764;DHT22;47432;48.760;9.178;2023-09-19T05:32:36;17.40;99.90
6764;DHT22;47432;48.760;9.178;2023-09-19T05:35:04;17.40;99.90
6764;DHT22;47432;48.760;9.178;2023-09-19T05:37:33;17.40;99.90
6764;DHT22;47432;48.760;9.178;2023-09-19T05:39:59;17.40;99.90
6764;DHT22;47432;48.760;9.178;2023-09-19T05:42:24;17.40;99.90
6764;DHT22;47432;48.760;9.178;2023-09-19T05:44:50;17.40;99.90
6764;DHT22;47432;48.760;9.178;2023-09-19T05:47:16;17.40;99.90
6764;DHT22;47432;48.760;9.178;2023-09-19T05:49:42;17.60;99.90
6764;DHT22;47432;48.760;9.178;2023-09-19T05:52:07;17.50;99.90
6764;DHT22;47432;48.760;9.178;2023-09-19T05:54:33;17.40;99.90
6764;DHT22;47432;48.760;9.178;2023-09-19T05:57:00;17.20;99.90
6764;DHT22;47432;48.760;9.178;2023-09-19T05:59:27;17.10;99.90
6764;DHT22;47432;48.760;9.178;2023-09-19T06:01:53;16.80;99.90
6764;DHT22;47432;48.760;9.178;2023-09-19T06:04:19;16.60;99.90
6764;DHT22;47432;48.760;9.178;2023-09-19T06:06:45;16.60;99.90
6764;DHT22;47432;48.760;9.178;2023-09-19T06:09:14;16.70;99.90
6764;DHT22;47432;48.760;9.178;2023-09-19T06:11:41;16.40;99.90
6764;DHT22;47432;48.760;9.178;2023-09-19T06:14:10;16.50;99.90
6764;DHT22;47432;48.760;9.178;2023-09-19T06:16:37;16.60;99.90
6764;DHT22;47432;48.760;9.178;2023-09-19T06:19:07;16.50;99.90
6764;DHT22;47432;48.760;9.178;2023-09-19T06:21:36;16.70;99.90
6764;DHT22;47432;48.760;9.178;2023-09-19T06:24:02;16.60;99.90
6764;DHT22;47432;48.760;9.178;2023-09-19T06:26:28;16.40;99.90
6764;DHT22;47432;48.760;9.178;2023-09-19T06:28:55;16.50;99.90
6764;DHT22;47432;48.760;9.178;2023-09-19T06:31:21;16.70;99.90
6764;DHT22;47432;48.760;9.178;2023-09-19T06:33:51;16.70;99.90
6764;DHT22;47432;48.760;9.178;2023-09-19T06:36:17;16.60;99.90
6764;DHT22;47432;48.760;9.178;2023-09-19T06:38:44;16.80;99.90
6764;DHT22;47432;48.760;9.178;2023-09-19T06:41:10;16.90;99.90
6764;DHT22;47432;48.760;9.178;2023-09-19T06:43:37;17.20;99.90
6764;DHT22;47432;48.760;9.178;2023-09-19T06:46:04;17.30;99.90
6764;DHT22;47432;48.760;9.178;2023-09-19T06:48:32;17.40;99.90
6764;DHT22;47432;48.760;9.178;2023-09-19T06:50:59;17.50;99.90
6764;DHT22;47432;48.760;9.178;2023-09-19T06:53:30;17.50;99.90
6764;DHT22;47432;48.760;9.178;2023-09-19T06:55:58;17.50;99.90
6764;DHT22;47432;48.760;9.178;2023-09-19T06:58:24;17.50;99.90
6764;DHT22;47432;48.760;9.178;2023-09-19T07:00:49;17.30;99.90
6764;DHT22;47432;48.760;9.178;2023-09-19T07:03:18;17.10;99.90
6764;DHT22;47432;48.760;9.178;2023-09-19T07:05:47;17.10;99.90
6764;DHT22;47432;48.760;9.178;2023-09-19T07:08:14;17.10;99.90
6764;DHT22;47432;48.760;9.178;2023-09-19T07:10:41;17.30;99.90
6764;DHT22;47432;48.760;9.178;2023-09-19T07:13:14;17.40;99.90
6764;DHT22;47432;48.760;9.178;2023-09-19T07:15:42;17.50;99.90
6764;DHT22;47432;48.760;9.178;2023-09-19T07:18:15;17.60;99.90
6764;DHT22;47432;48.760;9.178;2023-09-19T07:20:42;17.70;99.90
6764;DHT22;47432;48.760;9.178;2023-09-19T07:23:19;17.70;99.90
6764;DHT22;47432;48.760;9.178;2023-09-19T07:25:47;17.70;99.90
6764;DHT22;47432;48.760;9.178;2023-09-19T07:28:14;17.60;99.90
6764;DHT22;47432;48.760;9.178;2023-09-19T07:30:40;17.40;99.90
6764;DHT22;47432;48.760;9.178;2023-09-19T07:33:07;17.40;99.90
6764;DHT22;47432;48.760;9.178;2023-09-19T07:35:33;17.60;99.90
6764;DHT22;47432;48.760;9.178;2023-09-19T07:37:59;17.70;99.90
6764;DHT22;47432;48.760;9.178;2023-09-19T07:40:27;17.90;99.90
6764;DHT22;47432;48.760;9.178;2023-09-19T07:42:57;17.90;99.90
6764;DHT22;47432;48.760;9.178;2023-09-19T07:45:30;18.00;99.90
6764;DHT22;47432;48.760;9.178;2023-09-19T07:47:59;17.70;99.90
6764;DHT22;47432;48.760;9.178;2023-09-19T07:50:29;17.90;99.90
6764;DHT22;47432;48.760;9.178;2023-09-19T07:52:55;18.10;99.90
6764;DHT22;47432;48.760;9.178;2023-09-19T07:55:22;18.20;99.90
6764;DHT22;47432;48.760;9.178;2023-09-19T07:57:51;18.20;99.90
6764;DHT22;47432;48.760;9.178;2023-09-19T08:00:17;18.30;99.90
6764;DHT22;47432;48.760;9.178;2023-09-19T08:02:43;17.70;99.90
6764;DHT22;47432;48.760;9.178;2023-09-19T08:05:11;18.00;99.90
6764;DHT22;47432;48.760;9.178;2023-09-19T08:07:38;18.10;99.90
6764;DHT22;47432;48.760;9.178;2023-09-19T08:10:05;18.30;99.90
6764;DHT22;47432;48.760;9.178;2023-09-19T08:12:34;18.40;99.90
6764;DHT22;47432;48.760;9.178;2023-09-19T08:15:02;18.50;99.90
6764;DHT22;47432;48.760;9.178;2023-09-19T08:17:28;18.70;99.90
6764;DHT22;47432;48.760;9.178;2023-09-19T08:19:54;18.80;99.90
6764;DHT22;47432;48.760;9.178;2023-09-19T08:22:20;18.70;99.90
6764;DHT22;47432;48.760;9.178;2023-09-19T08:24:47;18.70;99.90
6764;DHT22;47432;48.760;9.178;2023-09-19T08:27:13;18.90;99.90
6764;DHT22;47432;48.760;9.178;2023-09-19T08:29:41;19.00;99.90
6764;DHT22;47432;48.760;9.178;2023-09-19T08:32:07;18.50;99.90
6764;DHT22;47432;48.760;9.178;2023-09-19T08:34:33;18.20;99.90
6764;DHT22;47432;48.760;9.178;2023-09-19T08:36:59;18.30;99.90
6764;DHT22;47432;48.760;9.178;2023-09-19T08:39:25;18.40;99.90
6764;DHT22;47432;48.760;9.178;2023-09-19T08:41:58;18.60;99.90
6764;DHT22;47432;48.760;9.178;2023-09-19T08:44:25;18.80;99.90
6764;DHT22;47432;48.760;9.178;2023-09-19T08:46:55;18.90;99.90
6764;DHT22;47432;48.760;9.178;2023-09-19T08:49:33;18.90;99.90
6764;DHT22;47432;48.760;9.178;2023-09-19T08:52:16;19.20;99.90
6764;DHT22;47432;48.760;9.178;2023-09-19T08:54:48;19.20;99.90
6764;DHT22;47432;48.760;9.178;2023-09-19T08:57:18;19.20;99.90
6764;DHT22;47432;48.760;9.178;2023-09-19T08:59:48;19.00;99.90
6764;DHT22;47432;48.760;9.178;2023-09-19T09:02:17;19.10;99.90
6764;DHT22;47432;48.760;9.178;2023-09-19T09:04:47;19.20;99.90
6764;DHT22;47432;48.760;9.178;2023-09-19T09:07:15;19.20;99.90
6764;DHT22;47432;48.760;9.178;2023-09-19T09:09:42;19.10;99.90
6764;DHT22;47432;48.760;9.178;2023-09-19T09:12:13;19.20;99.90
6764;DHT22;47432;48.760;9.178;2023-09-19T09:14:40;19.20;99.90
6764;DHT22;47432;48.760;9.178;2023-09-19T09:17:10;19.00;99.90
6764;DHT22;47432;48.760;9.178;2023-09-19T09:19:37;18.90;99.90
6764;DHT22;47432;48.760;9.178;2023-09-19T09:22:11;19.10;99.90
6764;DHT22;47432;48.760;9.178;2023-09-19T09:24:55;19.20;99.90
6764;DHT22;47432;48.760;9.178;2023-09-19T09:27:24;19.20;99.90
6764;DHT22;47432;48.760;9.178;2023-09-19T09:29:52;19.10;99.90
6764;DHT22;47432;48.760;9.178;2023-09-19T09:32:25;19.10;99.90
6764;DHT22;47432;48.760;9.178;2023-09-19T09:34:56;19.30;99.90
6764;DHT22;47432;48.760;9.178;2023-09-19T09:37:23;19.10;99.90
6764;DHT22;47432;48.760;9.178;2023-09-19T09:39:55;19.20;99.90
6764;DHT22;47432;48.760;9.178;2023-09-19T09:42:37;19.20;99.90
6764;DHT22;47432;48.760;9.178;2023-09-19T09:45:19;19.30;99.90
6764;DHT22;47432;48.760;9.178;2023-09-19T09:48:03;19.40;99.90
6764;DHT22;47432;48.760;9.178;2023-09-19T09:50:46;19.30;99.90
6764;DHT22;47432;48.760;9.178;2023-09-19T09:53:23;19.40;99.90
6764;DHT22;47432;48.760;9.178;2023-09-19T09:56:06;19.60;99.90
6764;DHT22;47432;48.760;9.178;2023-09-19T09:58:38;19.60;99.90
6764;DHT22;47432;48.760;9.178;2023-09-19T10:01:19;19.70;99.90
6764;DHT22;47432;48.760;9.178;2023-09-19T10:03:46;19.90;99.90
6764;DHT22;47432;48.760;9.178;2023-09-19T10:06:17;20.10;99.90
6764;DHT22;47432;48.760;9.178;2023-09-19T10:09:06;20.00;99.90
6764;DHT22;47432;48.760;9.178;2023-09-19T10:11:47;20.10;99.90
6764;DHT22;47432;48.760;9.178;2023-09-19T10:14:20;20.30;99.90
6764;DHT22;47432;48.760;9.178;2023-09-19T10:16:53;20.60;99.90
6764;DHT22;47432;48.760;9.178;2023-09-19T10:22:46;20.70;99.90
6764;DHT22;47432;48.760;9.178;2023-09-19T10:25:27;20.70;99.90
6764;DHT22;47432;48.760;9.178;2023-09-19T10:28:02;20.70;99.90
6764;DHT22;47432;48.760;9.178;2023-09-19T10:30:43;20.50;99.90
6764;DHT22;47432;48.760;9.178;2023-09-19T10:33:11;20.50;99.90
6764;DHT22;47432;48.760;9.178;2023-09-19T10:35:40;20.60;99.90
6764;DHT22;47432;48.760;9.178;2023-09-19T10:38:10;20.70;99.90
6764;DHT22;47432;48.760;9.178;2023-09-19T10:40:38;20.70;99.90
6764;DHT22;47432;48.760;9.178;2023-09-19T10:43:12;20.60;99.90
6764;DHT22;47432;48.760;9.178;2023-09-19T10:45:39;20.80;99.90
6764;DHT22;47432;48.760;9.178;2023-09-19T10:48:06;20.70;99.90
6764;DHT22;47432;48.760;9.178;2023-09-19T10:54:07;20.50;99.90
6764;DHT22;47432;48.760;9.178;2023-09-19T10:56:42;20.40;99.90
6764;DHT22;47432;48.760;9.178;2023-09-19T10:59:18;20.30;99.90
6764;DHT22;47432;48.760;9.178;2023-09-19T11:04:36;20.40;99.90
6764;DHT22;47432;48.760;9.178;2023-09-19T11:07:12;20.60;99.90
6764;DHT22;47432;48.760;9.178;2023-09-19T11:09:46;20.60;99.90
6764;DHT22;47432;48.760;9.178;2023-09-19T11:15:07;20.50;99.90
6764;DHT22;47432;48.760;9.178;2023-09-19T11:17:43;20.20;99.90
6764;DHT22;47432;48.760;9.178;2023-09-19T11:20:16;20.10;99.90
6764;DHT22;47432;48.760;9.178;2023-09-19T11:30:52;20.60;99.90
6764;DHT22;47432;48.760;9.178;2023-09-19T11:36:13;20.70;99.90
6764;DHT22;47432;48.760;9.178;2023-09-19T11:46:55;20.50;99.90
6764;DHT22;47432;48.760;9.178;2023-09-19T11:49:28;20.60;99.90
6764;DHT22;47432;48.760;9.178;2023-09-19T11:52:02;20.70;99.90
6764;DHT22;47432;48.760;9.178;2023-09-19T11:54:31;20.70;99.90
6764;DHT22;47432;48.760;9.178;2023-09-19T11:56:58;20.70;99.90
6764;DHT22;47432;48.760;9.178;2023-09-19T11:59:31;20.90;99.90
6764;DHT22;47432;48.760;9.178;2023-09-19T12:02:03;21.10;99.90
6764;DHT22;47432;48.760;9.178;2023-09-19T12:04:40;21.10;99.90
6764;DHT22;47432;48.760;9.178;2023-09-19T12:07:10;21.10;99.90
6764;DHT22;47432;48.760;9.178;2023-09-19T12:09:43;21.20;99.90
6764;DHT22;47432;48.760;9.178;2023-09-19T12:12:29;21.40;99.90
6764;DHT22;47432;48.760;9.178;2023-09-19T12:14:56;21.40;99.90
6764;DHT22;47432;48.760;9.178;2023-09-19T12:17:38;21.30;99.90
6764;DHT22;47432;48.760;9.178;2023-09-19T12:20:08;21.20;99.90
6764;DHT22;47432;48.760;9.178;2023-09-19T12:22:44;21.10;99.90
6764;DHT22;47432;48.760;9.178;2023-09-19T12:25:13;21.20;99.90
6764;DHT22;47432;48.760;9.178;2023-09-19T12:27:45;21.40;99.90
6764;DHT22;47432;48.760;9.178;2023-09-19T12:30:27;21.80;99.90
6764;DHT22;47432;48.760;9.178;2023-09-19T12:32:54;22.00;99.90
6764;DHT22;47432;48.760;9.178;2023-09-19T12:35:41;22.30;99.90
6764;DHT22;47432;48.760;9.178;2023-09-19T12:38:10;22.50;99.90
6764;DHT22;47432;48.760;9.178;2023-09-19T12:40:38;22.60;99.90
6764;DHT22;47432;48.760;9.178;2023-09-19T12:43:08;22.80;99.90
6764;DHT22;47432;48.760;9.178;2023-09-19T12:45:35;23.10;99.90
6764;DHT22;47432;48.760;9.178;2023-09-19T12:48:22;22.80;99.90
6764;DHT22;47432;48.760;9.178;2023-09-19T12:51:10;23.20;99.90
6764;DHT22;47432;48.760;9.178;2023-09-19T12:53:42;23.50;99.90
6764;DHT22;47432;48.760;9.178;2023-09-19T12:56:11;23.60;99.90
6764;DHT22;47432;48.760;9.178;2023-09-19T13:01:20;24.00;99.40
6764;DHT22;47432;48.760;9.178;2023-09-19T13:03:46;24.20;99.60
6764;DHT22;47432;48.760;9.178;2023-09-19T13:06:48;24.80;99.20
6764;DHT22;47432;48.760;9.178;2023-09-19T13:09:16;24.90;98.70
6764;DHT22;47432;48.760;9.178;2023-09-19T13:11:43;25.40;98.80
6764;DHT22;47432;48.760;9.178;2023-09-19T13:14:28;25.80;96.80
6764;DHT22;47432;48.760;9.178;2023-09-19T13:17:05;26.50;97.10
6764;DHT22;47432;48.760;9.178;2023-09-19T13:19:45;26.60;95.70
6764;DHT22;47432;48.760;9.178;2023-09-19T13:22:41;26.10;95.70
6764;DHT22;47432;48.760;9.178;2023-09-19T13:25:15;25.70;95.80
6764;DHT22;47432;48.760;9.178;2023-09-19T13:27:46;25.50;96.50
6764;DHT22;47432;48.760;9.178;2023-09-19T13:30:26;25.90;95.80
6764;DHT22;47432;48.760;9.178;2023-09-19T13:33:09;26.70;97.00
6764;DHT22;47432;48.760;9.178;2023-09-19T13:35:36;26.30;94.30
6764;DHT22;47432;48.760;9.178;2023-09-19T13:38:04;25.40;94.30
6764;DHT22;47432;48.760;9.178;2023-09-19T13:40:30;25.50;95.40
6764;DHT22;47432;48.760;9.178;2023-09-19T13:43:00;26.00;94.80
6764;DHT22;47432;48.760;9.178;2023-09-19T13:45:28;26.10;95.40
6764;DHT22;47432;48.760;9.178;2023-09-19T13:47:56;26.40;94.90
6764;DHT22;47432;48.760;9.178;2023-09-19T13:50:22;26.50;94.80
6764;DHT22;47432;48.760;9.178;2023-09-19T13:52:53;26.80;93.50
6764;DHT22;47432;48.760;9.178;2023-09-19T13:55:20;26.40;93.50
6764;DHT22;47432;48.760;9.178;2023-09-19T13:57:47;26.60;92.90
6764;DHT22;47432;48.760;9.178;2023-09-19T14:00:17;27.00;93.20
6764;DHT22;47432;48.760;9.178;2023-09-19T14:02:43;26.20;91.90
6764;DHT22;47432;48.760;9.178;2023-09-19T14:05:10;26.30;92.30
6764;DHT22;47432;48.760;9.178;2023-09-19T14:07:40;26.30;92.40
6764;DHT22;47432;48.760;9.178;2023-09-19T14:10:07;25.40;92.10
6764;DHT22;47432;48.760;9.178;2023-09-19T14:12:41;25.60;93.50
6764;DHT22;47432;48.760;9.178;2023-09-19T14:15:10;24.80;92.50
6764;DHT22;47432;48.760;9.178;2023-09-19T14:17:37;25.30;93.00
6764;DHT22;47432;48.760;9.178;2023-09-19T14:20:03;25.60;92.80
6764;DHT22;47432;48.760;9.178;2023-09-19T14:22:31;25.30;91.80
6764;DHT22;47432;48.760;9.178;2023-09-19T14:24:58;25.00;93.00
6764;DHT22;47432;48.760;9.178;2023-09-19T14:27:25;24.80;93.30
6764;DHT22;47432;48.760;9.178;2023-09-19T14:29:50;25.00;93.60
6764;DHT22;47432;48.760;9.178;2023-09-19T14:32:17;25.20;93.20
6764;DHT22;47432;48.760;9.178;2023-09-19T14:34:43;24.60;93.60
6764;DHT22;47432;48.760;9.178;2023-09-19T14:37:09;24.80;93.30
6764;DHT22;47432;48.760;9.178;2023-09-19T14:39:36;25.00;93.20
6764;DHT22;47432;48.760;9.178;2023-09-19T14:42:04;25.30;92.70
6764;DHT22;47432;48.760;9.178;2023-09-19T14:44:30;25.70;91.10
6764;DHT22;47432;48.760;9.178;2023-09-19T14:46:56;25.90;91.60
6764;DHT22;47432;48.760;9.178;2023-09-19T14:49:21;25.60;91.80
6764;DHT22;47432;48.760;9.178;2023-09-19T14:51:47;26.60;91.00
6764;DHT22;47432;48.760;9.178;2023-09-19T14:54:14;27.20;88.90
6764;DHT22;47432;48.760;9.178;2023-09-19T14:56:42;27.60;89.60
6764;DHT22;47432;48.760;9.178;2023-09-19T14:59:08;27.50;87.20
6764;DHT22;47432;48.760;9.178;2023-09-19T15:01:36;26.60;88.20
6764;DHT22;47432;48.760;9.178;2023-09-19T15:04:02;27.20;89.40
6764;DHT22;47432;48.760;9.178;2023-09-19T15:06:28;27.60;89.00
6764;DHT22;47432;48.760;9.178;2023-09-19T15:08:54;28.30;88.10
6764;DHT22;47432;48.760;9.178;2023-09-19T15:11:20;28.10;84.30
6764;DHT22;47432;48.760;9.178;2023-09-19T15:13:47;26.10;83.50
6764;DHT22;47432;48.760;9.178;2023-09-19T15:16:14;27.00;85.90
6764;DHT22;47432;48.760;9.178;2023-09-19T15:18:45;26.60;86.60
6764;DHT22;47432;48.760;9.178;2023-09-19T15:21:13;26.60;86.40
6764;DHT22;47432;48.760;9.178;2023-09-19T15:23:46;26.10;86.60
6764;DHT22;47432;48.760;9.178;2023-09-19T15:26:14;26.60;86.50
6764;DHT22;47432;48.760;9.178;2023-09-19T15:28:45;26.60;86.20
6764;DHT22;47432;48.760;9.178;2023-09-19T15:31:12;26.10;87.00
6764;DHT22;47432;48.760;9.178;2023-09-19T15:33:39;26.30;89.00
6764;DHT22;47432;48.760;9.178;2023-09-19T15:38:55;27.30;86.60
6764;DHT22;47432;48.760;9.178;2023-09-19T15:41:38;27.50;84.80
6764;DHT22;47432;48.760;9.178;2023-09-19T15:44:12;27.60;84.70
6764;DHT22;47432;48.760;9.178;2023-09-19T15:46:39;27.40;83.10
6764;DHT22;47432;48.760;9.178;2023-09-19T15:49:07;27.30;83.70
6764;DHT22;47432;48.760;9.178;2023-09-19T15:51:36;27.30;84.10
6764;DHT22;47432;48.760;9.178;2023-09-19T15:54:14;26.40;84.50
6764;DHT22;47432;48.760;9.178;2023-09-19T15:56:41;26.60;86.40
6764;DHT22;47432;48.760;9.178;2023-09-19T15:59:08;26.10;86.30
6764;DHT22;47432;48.760;9.178;2023-09-19T16:01:35;26.80;85.80
6764;DHT22;47432;48.760;9.178;2023-09-19T16:04:00;27.80;83.80
6764;DHT22;47432;48.760;9.178;2023-09-19T16:06:28;27.70;83.30
6764;DHT22;47432;48.760;9.178;2023-09-19T16:08:56;27.50;81.80
6764;DHT22;47432;48.760;9.178;2023-09-19T16:11:29;28.40;81.30
6764;DHT22;47432;48.760;9.178;2023-09-19T16:13:57;28.90;81.80
6764;DHT22;47432;48.760;9.178;2023-09-19T16:16:23;29.10;79.90
6764;DHT22;47432;48.760;9.178;2023-09-19T16:18:56;28.80;80.30
6764;DHT22;47432;48.760;9.178;2023-09-19T16:21:25;28.60;80.00
6764;DHT22;47432;48.760;9.178;2023-09-19T16:23:56;28.80;81.50
6764;DHT22;47432;48.760;9.178;2023-09-19T16:26:24;28.70;84.90
6764;DHT22;47432;48.760;9.178;2023-09-19T16:28:56;28.30;80.50
6764;DHT22;47432;48.760;9.178;2023-09-19T16:31:26;27.80;82.50
6764;DHT22;47432;48.760;9.178;2023-09-19T16:33:53;28.40;85.00
6764;DHT22;47432;48.760;9.178;2023-09-19T16:36:20;29.10;80.70
6764;DHT22;47432;48.760;9.178;2023-09-19T16:38:52;29.20;81.00
6764;DHT22;47432;48.760;9.178;2023-09-19T16:41:20;28.60;82.30
6764;DHT22;47432;48.760;9.178;2023-09-19T16:43:46;28.20;83.90
6764;DHT22;47432;48.760;9.178;2023-09-19T16:46:13;27.70;83.30
6764;DHT22;47432;48.760;9.178;2023-09-19T16:48:42;27.30;83.90
6764;DHT22;47432;48.760;9.178;2023-09-19T16:51:12;26.80;88.00
6764;DHT22;47432;48.760;9.178;2023-09-19T16:53:39;26.40;89.00
6764;DHT22;47432;48.760;9.178;2023-09-19T16:56:09;25.70;91.10
6764;DHT22;47432;48.760;9.178;2023-09-19T16:58:39;25.20;91.20